createdAt,value
2018-07-22T00:01:29.765Z,71.70
2018-07-22T00:04:00.026Z,71.43
2018-07-22T00:06:30.189Z,70.82
2018-07-22T00:09:00.373Z,71.62
2018-07-22T00:11:30.571Z,73.00
2018-07-22T00:14:00.759Z,73.24
2018-07-22T00:16:30.919Z,73.59
2018-07-22T00:19:01.121Z,74.47
2018-07-22T00:21:31.457Z,75.09
2018-07-22T00:24:01.898Z,75.75
2018-07-22T00:26:32.026Z,75.87
2018-07-22T00:29:02.191Z,76.66
2018-07-22T00:31:32.367Z,77.11
2018-07-22T00:34:02.688Z,77.20
2018-07-22T00:36:32.802Z,77.52
2018-07-22T00:39:03.112Z,77.54
2018-07-22T00:41:33.247Z,77.62
2018-07-22T00:44:03.474Z,77.43
2018-07-22T00:46:33.810Z,77.37
2018-07-22T00:49:04.103Z,77.99
2018-07-22T00:51:34.474Z,77.95
2018-07-22T00:54:04.880Z,78.28
2018-07-22T00:56:35.315Z,77.86
2018-07-22T00:59:05.493Z,78.25
2018-07-22T01:01:35.637Z,78.77
2018-07-22T01:04:05.961Z,79.54
2018-07-22T01:06:36.169Z,79.75
2018-07-22T01:09:10.473Z,79.92
2018-07-22T01:11:41.660Z,80.47
2018-07-22T01:14:11.789Z,80.06
2018-07-22T01:16:41.950Z,80.79
2018-07-22T01:19:12.115Z,80.60
2018-07-22T01:21:42.191Z,81.48
2018-07-22T01:24:12.399Z,81.45
2018-07-22T01:26:42.517Z,81.96
2018-07-22T01:29:12.673Z,82.11
2018-07-22T01:31:42.797Z,82.19
2018-07-22T01:34:13.128Z,81.97
2018-07-22T01:36:43.246Z,82.55
2018-07-22T01:39:13.361Z,82.59
2018-07-22T01:41:43.612Z,82.96
2018-07-22T01:44:13.857Z,83.48
2018-07-22T01:46:44.055Z,83.06
2018-07-22T01:49:14.184Z,83.56
2018-07-22T01:51:44.293Z,83.88
2018-07-22T01:54:14.444Z,84.44
2018-07-22T01:56:44.602Z,84.91
2018-07-22T01:59:14.773Z,84.81
2018-07-22T02:01:44.855Z,84.95
2018-07-22T02:04:15.029Z,84.58
2018-07-22T02:06:45.167Z,85.09
2018-07-22T02:09:15.399Z,85.73
2018-07-22T02:11:45.461Z,86.01
2018-07-22T02:14:15.756Z,85.60
2018-07-22T02:16:45.840Z,86.00
2018-07-22T02:19:15.998Z,86.32
2018-07-22T02:21:46.162Z,86.30
2018-07-22T02:24:16.318Z,86.41
2018-07-22T02:26:46.513Z,86.50
2018-07-22T02:29:16.646Z,86.99
2018-07-22T02:31:46.766Z,87.20
2018-07-22T02:34:16.911Z,87.42
2018-07-22T02:36:47.022Z,87.85
2018-07-22T02:39:17.221Z,88.45
2018-07-22T02:41:47.277Z,88.72
2018-07-22T02:44:17.420Z,88.41
2018-07-22T02:46:47.553Z,88.55
2018-07-22T02:49:17.702Z,88.46
2018-07-22T02:51:47.822Z,89.35
2018-07-22T02:54:18.042Z,89.55
2018-07-22T02:56:48.180Z,89.64
2018-07-22T02:59:18.320Z,90.06
2018-07-22T03:01:48.431Z,89.96
2018-07-22T03:04:18.552Z,90.22
2018-07-22T03:06:52.653Z,90.67
2018-07-22T03:09:22.812Z,90.57
2018-07-22T03:11:52.925Z,90.42
2018-07-22T03:14:23.013Z,90.61
2018-07-22T03:16:53.162Z,90.56
2018-07-22T03:19:23.253Z,90.87
2018-07-22T03:21:53.399Z,91.31
2018-07-22T03:24:23.539Z,91.28
2018-07-22T03:26:53.825Z,91.32
2018-07-22T03:29:23.994Z,91.54
2018-07-22T03:31:54.133Z,91.36
2018-07-22T03:34:24.251Z,91.13
2018-07-22T03:36:54.668Z,91.78
2018-07-22T03:39:24.764Z,92.16
2018-07-22T03:41:54.955Z,92.04
2018-07-22T03:44:25.114Z,92.15
2018-07-22T03:46:55.293Z,92.22
2018-07-22T03:49:25.421Z,92.18
2018-07-22T03:51:55.557Z,92.46
2018-07-22T03:54:25.688Z,92.12
2018-07-22T03:56:55.827Z,92.12
2018-07-22T03:59:26.088Z,91.93
2018-07-22T04:01:56.276Z,91.64
2018-07-22T04:04:26.430Z,91.89
2018-07-22T04:06:56.556Z,91.71
2018-07-22T04:09:26.685Z,91.25
2018-07-22T04:11:56.844Z,91.33
2018-07-22T04:14:27.096Z,91.33
2018-07-22T04:16:57.285Z,90.73
2018-07-22T04:19:27.422Z,91.20
2018-07-22T04:21:57.634Z,90.98
2018-07-22T04:24:27.826Z,90.74
2018-07-22T04:26:58.054Z,90.63
2018-07-22T04:29:28.168Z,89.83
2018-07-22T04:31:58.293Z,89.58
2018-07-22T04:34:28.464Z,89.48
2018-07-22T04:36:58.600Z,89.32
2018-07-22T04:39:28.741Z,89.06
2018-07-22T04:41:58.906Z,88.47
2018-07-22T04:44:29.088Z,88.12
2018-07-22T04:46:59.297Z,87.52
2018-07-22T04:49:31.787Z,88.16
2018-07-22T04:52:02.171Z,87.81
2018-07-22T04:54:33.055Z,87.21
2018-07-22T04:57:03.333Z,86.25
2018-07-22T04:59:33.590Z,86.46
2018-07-22T05:02:03.894Z,85.60
2018-07-22T05:04:34.084Z,85.07
2018-07-22T05:07:04.405Z,84.10
2018-07-22T05:09:34.529Z,84.06
2018-07-22T05:12:04.880Z,83.21
2018-07-22T05:14:34.569Z,82.91
2018-07-22T05:17:04.840Z,81.59
2018-07-22T05:19:35.057Z,81.35
2018-07-22T05:22:05.463Z,80.40
2018-07-22T05:24:35.605Z,79.31
2018-07-22T05:27:05.952Z,80.20
2018-07-22T05:29:36.021Z,80.71
2018-07-22T05:32:06.538Z,80.18
2018-07-22T05:34:36.758Z,79.44
2018-07-22T05:37:07.198Z,79.29
2018-07-22T05:39:37.868Z,78.03
2018-07-22T05:42:08.255Z,76.65
2018-07-22T05:44:37.951Z,75.85
2018-07-22T05:47:08.252Z,72.27
2018-07-22T05:49:38.909Z,67.97
2018-07-22T05:52:09.084Z,64.91
2018-07-22T05:54:39.206Z,64.25
2018-07-22T05:57:09.513Z,61.51
2018-07-22T05:59:39.657Z,58.21
2018-07-22T06:02:09.895Z,60.05
2018-07-22T06:04:40.047Z,58.38
2018-07-22T06:07:10.275Z,57.79
2018-07-22T06:09:39.972Z,55.17
2018-07-22T06:12:10.244Z,54.96
2018-07-22T06:14:40.480Z,55.18
2018-07-22T06:17:10.676Z,54.79
2018-07-22T06:19:40.872Z,52.73
2018-07-22T06:22:11.119Z,51.97
2018-07-22T06:24:41.245Z,52.24
2018-07-22T06:27:11.435Z,53.49
2018-07-22T06:29:41.626Z,52.79
2018-07-22T06:32:11.966Z,52.46
2018-07-22T06:34:42.091Z,51.71
2018-07-22T06:37:12.328Z,51.48
2018-07-22T06:39:42.486Z,51.57
2018-07-22T06:42:12.597Z,49.01
2018-07-22T06:44:42.673Z,48.59
2018-07-22T06:47:12.839Z,47.60
2018-07-22T06:49:43.143Z,46.44
2018-07-22T06:52:13.287Z,46.21
2018-07-22T06:54:43.476Z,45.79
2018-07-22T06:57:13.738Z,45.08
2018-07-22T06:59:43.812Z,44.05
2018-07-22T07:02:13.982Z,44.30
2018-07-22T07:04:44.047Z,44.56
2018-07-22T07:07:14.199Z,45.13
2018-07-22T07:09:44.382Z,43.84
2018-07-22T07:12:14.505Z,44.58
2018-07-22T07:14:44.639Z,41.65
2018-07-22T07:17:14.783Z,41.72
2018-07-22T07:19:44.926Z,41.90
2018-07-22T07:22:15.041Z,41.00
2018-07-22T07:24:45.172Z,43.19
2018-07-22T07:27:15.358Z,40.68
2018-07-22T07:29:45.479Z,40.18
2018-07-22T07:32:15.668Z,40.04
2018-07-22T07:34:45.810Z,39.96
2018-07-22T07:37:16.111Z,39.79
2018-07-22T07:39:46.268Z,38.98
2018-07-22T07:42:16.503Z,39.29
2018-07-22T07:44:46.632Z,38.48
2018-07-22T07:47:16.873Z,37.58
2018-07-22T07:49:46.986Z,35.57
2018-07-22T07:52:17.324Z,38.30
2018-07-22T07:54:47.454Z,36.83
2018-07-22T07:57:17.693Z,36.41
2018-07-22T07:59:47.875Z,35.94
2018-07-22T08:02:18.079Z,35.84
2018-07-22T08:04:48.277Z,34.11
2018-07-22T08:07:18.434Z,33.42
2018-07-22T08:09:48.611Z,32.92
2018-07-22T08:12:18.919Z,33.57
2018-07-22T08:14:49.128Z,32.85
2018-07-22T08:17:19.238Z,34.06
2018-07-22T08:19:49.447Z,34.09
2018-07-22T08:22:19.159Z,32.59
2018-07-22T08:24:50.101Z,32.92
2018-07-22T08:27:20.283Z,34.54
2018-07-22T08:29:50.478Z,32.63
2018-07-22T08:32:20.725Z,32.62
2018-07-22T08:34:50.969Z,31.88
2018-07-22T08:37:21.166Z,30.49
2018-07-22T08:39:51.396Z,30.23
2018-07-22T08:42:21.706Z,28.16
2018-07-22T08:44:51.914Z,29.79
2018-07-22T08:47:22.128Z,29.62
2018-07-22T08:49:52.270Z,30.39
2018-07-22T08:52:22.472Z,28.18
2018-07-22T08:54:52.606Z,27.16
2018-07-22T08:57:22.791Z,29.21
2018-07-22T08:59:53.016Z,28.98
2018-07-22T09:02:23.180Z,28.37
2018-07-22T09:04:53.382Z,29.00
2018-07-22T09:07:23.548Z,29.89
2018-07-22T09:09:53.654Z,28.17
2018-07-22T09:12:23.915Z,28.37
2018-07-22T09:14:54.023Z,28.78
2018-07-22T09:17:24.217Z,27.85
2018-07-22T09:19:54.550Z,29.72
2018-07-22T09:22:24.775Z,30.40
2018-07-22T09:24:54.942Z,28.54
2018-07-22T09:27:25.106Z,28.16
2018-07-22T09:29:55.249Z,26.88
2018-07-22T09:32:25.417Z,26.07
2018-07-22T09:34:55.531Z,27.29
2018-07-22T09:37:25.709Z,25.88
2018-07-22T09:39:55.812Z,26.62
2018-07-22T09:42:25.928Z,27.77
2018-07-22T09:44:56.043Z,28.94
2018-07-22T09:47:26.326Z,29.25
2018-07-22T09:49:57.338Z,28.02
2018-07-22T09:52:27.658Z,27.46
2018-07-22T09:54:57.772Z,25.88
2018-07-22T09:57:39.733Z,27.24
2018-07-22T10:00:10.251Z,28.53
2018-07-22T10:02:40.399Z,30.01
2018-07-22T10:05:10.565Z,30.47
2018-07-22T10:07:40.730Z,29.69
2018-07-22T10:10:10.843Z,30.33
2018-07-22T10:12:41.004Z,30.68
2018-07-22T10:15:11.214Z,33.17
2018-07-22T10:17:41.131Z,32.70
2018-07-22T10:20:11.294Z,30.81
2018-07-22T10:22:41.726Z,33.61
2018-07-22T10:25:11.954Z,31.74
2018-07-22T10:27:42.378Z,32.00
2018-07-22T10:30:12.634Z,31.48
2018-07-22T10:32:42.805Z,32.56
2018-07-22T10:35:12.914Z,31.97
2018-07-22T10:37:43.099Z,33.74
2018-07-22T10:40:13.918Z,35.13
2018-07-22T10:42:44.115Z,34.75
2018-07-22T10:45:14.219Z,34.19
2018-07-22T10:47:44.372Z,34.78
2018-07-22T10:50:14.542Z,35.34
2018-07-22T10:52:44.651Z,35.55
2018-07-22T10:57:43.913Z,35.46
2018-07-22T11:00:14.094Z,33.99
2018-07-22T11:02:44.248Z,35.46
2018-07-22T11:05:14.432Z,34.82
2018-07-22T11:07:44.580Z,34.12
2018-07-22T11:10:14.794Z,33.70
2018-07-22T11:12:44.913Z,33.54
2018-07-22T11:15:15.169Z,33.61
2018-07-22T11:17:45.388Z,33.71
2018-07-22T11:20:15.584Z,33.96
2018-07-22T11:22:45.759Z,33.42
2018-07-22T11:25:15.889Z,33.34
2018-07-22T11:27:46.029Z,33.41
2018-07-22T11:30:16.154Z,34.34
2018-07-22T11:32:46.382Z,34.74
2018-07-22T11:35:16.623Z,34.94
2018-07-22T11:37:46.852Z,36.10
2018-07-22T11:40:16.999Z,36.35
2018-07-22T11:42:47.181Z,37.07
2018-07-22T11:45:17.239Z,35.45
2018-07-22T11:47:47.367Z,32.30
2018-07-22T11:50:17.467Z,33.65
2018-07-22T11:52:47.532Z,32.52
2018-07-22T11:55:17.645Z,34.02
2018-07-22T11:57:47.869Z,32.61
2018-07-22T12:00:18.100Z,32.56
2018-07-22T12:02:48.221Z,31.05
2018-07-22T12:05:18.354Z,32.53
2018-07-22T12:07:48.630Z,32.63
2018-07-22T12:10:18.680Z,33.05
2018-07-22T12:12:49.093Z,32.93
2018-07-22T12:15:19.215Z,33.29
2018-07-22T12:17:49.427Z,32.91
2018-07-22T12:20:22.514Z,32.30
2018-07-22T12:22:52.658Z,31.40
2018-07-22T12:25:23.029Z,32.67
2018-07-22T12:27:53.293Z,32.41
2018-07-22T12:30:23.525Z,35.01
2018-07-22T12:32:53.696Z,33.27
2018-07-22T12:35:24.419Z,32.97
2018-07-22T12:37:54.797Z,33.75
2018-07-22T12:40:25.070Z,33.94
2018-07-22T12:42:55.307Z,34.37
2018-07-22T12:45:25.461Z,34.75
2018-07-22T12:47:55.695Z,33.77
2018-07-22T12:50:25.822Z,34.07
2018-07-22T12:52:56.116Z,35.49
2018-07-22T12:55:26.293Z,35.00
2018-07-22T12:57:56.476Z,35.52
2018-07-22T13:00:26.648Z,35.34
2018-07-22T13:02:56.901Z,33.35
2018-07-22T13:05:27.041Z,33.52
2018-07-22T13:07:57.160Z,34.11
2018-07-22T13:10:27.269Z,34.44
2018-07-22T13:12:57.486Z,35.37
2018-07-22T13:15:27.600Z,35.25
2018-07-22T13:17:57.726Z,35.37
2018-07-22T13:20:27.916Z,34.89
2018-07-22T13:22:58.142Z,34.60
2018-07-22T13:25:28.295Z,33.54
2018-07-22T13:27:58.519Z,35.12
2018-07-22T13:30:28.774Z,34.03
2018-07-22T13:32:58.926Z,32.86
2018-07-22T13:35:29.046Z,33.07
2018-07-22T13:37:59.275Z,33.84
2018-07-22T13:40:29.479Z,32.90
2018-07-22T13:42:59.777Z,31.39
2018-07-22T13:45:31.113Z,33.23
2018-07-22T13:48:01.530Z,34.03
2018-07-22T13:50:32.284Z,34.97
2018-07-22T13:53:02.477Z,35.11
2018-07-22T13:55:32.792Z,38.50
2018-07-22T13:58:03.796Z,40.29
2018-07-22T14:00:34.193Z,42.13
2018-07-22T14:03:04.426Z,42.89
2018-07-22T14:05:35.083Z,44.18
2018-07-22T14:08:08.511Z,44.69
2018-07-22T14:10:38.779Z,43.92
2018-07-22T14:13:09.299Z,43.66
2018-07-22T14:15:39.615Z,43.42
2018-07-22T14:18:10.023Z,43.17
2018-07-22T14:20:40.317Z,43.08
2018-07-22T14:23:10.578Z,42.66
2018-07-22T14:25:40.749Z,43.63
2018-07-22T14:28:11.118Z,42.73
2018-07-22T14:30:41.313Z,43.45
2018-07-22T14:33:12.047Z,43.31
2018-07-22T14:35:42.573Z,42.78
2018-07-22T14:38:12.924Z,43.78
2018-07-22T14:40:43.749Z,42.19
2018-07-22T14:43:14.055Z,42.62
2018-07-22T14:45:44.281Z,41.73
2018-07-22T14:48:14.589Z,40.44
2018-07-22T14:50:45.539Z,40.81
2018-07-22T14:53:15.833Z,41.56
2018-07-22T14:55:45.958Z,40.36
2018-07-22T14:58:16.191Z,40.47
2018-07-22T15:00:46.411Z,40.46
2018-07-22T15:03:16.619Z,40.39
2018-07-22T15:05:46.968Z,40.71
2018-07-22T15:08:17.333Z,39.97
2018-07-22T15:10:47.548Z,39.91
2018-07-22T15:13:17.726Z,40.75
2018-07-22T15:15:47.844Z,41.70
2018-07-22T15:18:18.072Z,41.06
2018-07-22T15:20:48.361Z,40.57
2018-07-22T15:23:20.235Z,39.27
2018-07-22T15:25:50.455Z,41.13
2018-07-22T15:28:20.667Z,40.26
2018-07-22T15:30:51.086Z,41.48
2018-07-22T15:33:21.311Z,40.91
2018-07-22T15:35:51.876Z,40.30
2018-07-22T15:38:22.084Z,40.68
2018-07-22T15:40:52.322Z,39.78
2018-07-22T15:43:22.442Z,39.63
2018-07-22T15:45:52.543Z,40.61
2018-07-22T15:48:22.837Z,39.79
2018-07-22T15:50:54.341Z,39.55
2018-07-22T15:53:24.472Z,39.21
2018-07-22T15:55:54.660Z,39.33
2018-07-22T15:58:24.781Z,39.38
2018-07-22T16:00:54.915Z,38.35
2018-07-22T16:03:25.126Z,39.13
2018-07-22T16:05:54.788Z,39.49
2018-07-22T16:08:24.965Z,38.51
2018-07-22T16:10:55.078Z,39.52
2018-07-22T16:13:25.293Z,39.83
2018-07-22T16:15:55.468Z,40.90
2018-07-22T16:18:25.766Z,41.06
2018-07-22T16:20:55.975Z,39.72
2018-07-22T16:23:26.234Z,41.47
2018-07-22T16:25:56.365Z,41.07
2018-07-22T16:28:26.612Z,41.57
2018-07-22T16:30:56.683Z,41.02
2018-07-22T16:33:26.908Z,40.60
2018-07-22T16:35:56.670Z,38.95
2018-07-22T16:38:26.842Z,39.49
2018-07-22T16:40:56.989Z,40.12
2018-07-22T16:43:29.984Z,40.91
2018-07-22T16:46:00.078Z,40.85
2018-07-22T16:48:30.249Z,43.45
2018-07-22T16:51:00.401Z,41.33
2018-07-22T16:53:30.943Z,40.28
2018-07-22T16:56:01.083Z,39.55
2018-07-22T16:58:31.198Z,41.61
2018-07-22T17:01:01.323Z,41.75
2018-07-22T17:03:31.515Z,40.96
2018-07-22T17:06:01.675Z,42.19
2018-07-22T17:08:31.803Z,41.50
2018-07-22T17:11:01.961Z,44.26
2018-07-22T17:13:32.130Z,43.66
2018-07-22T17:16:02.288Z,44.46
2018-07-22T17:18:32.587Z,44.91
2018-07-22T17:21:02.919Z,45.47
2018-07-22T17:23:33.156Z,43.41
2018-07-22T17:26:02.866Z,42.72
2018-07-22T17:28:33.023Z,44.12
2018-07-22T17:31:03.183Z,44.72
2018-07-22T17:33:33.463Z,45.18
2018-07-22T17:36:03.660Z,45.37
2018-07-22T17:38:33.831Z,43.82
2018-07-22T17:41:03.926Z,44.70
2018-07-22T17:43:34.127Z,44.50
2018-07-22T17:46:04.246Z,44.94
2018-07-22T17:48:34.624Z,43.53
2018-07-22T17:51:04.948Z,43.93
2018-07-22T17:53:35.100Z,43.20
2018-07-22T17:56:05.270Z,43.94
2018-07-22T17:58:35.360Z,45.73
2018-07-22T18:01:05.664Z,46.28
2018-07-22T18:03:35.794Z,45.24
2018-07-22T18:06:06.103Z,44.02
2018-07-22T18:08:36.399Z,44.21
2018-07-22T18:11:06.896Z,43.12
2018-07-22T18:13:37.013Z,44.24
2018-07-22T18:16:07.226Z,44.71
2018-07-22T18:18:37.379Z,44.22
2018-07-22T18:21:07.997Z,44.49
2018-07-22T18:23:38.347Z,44.11
2018-07-22T18:26:08.528Z,44.59
2018-07-22T18:28:38.735Z,44.02
2018-07-22T18:31:08.979Z,44.47
2018-07-22T18:33:38.680Z,44.83
2018-07-22T18:36:09.229Z,44.69
2018-07-22T18:38:39.367Z,45.35
2018-07-22T18:41:10.261Z,47.08
2018-07-22T18:43:40.666Z,46.15
2018-07-22T18:46:10.946Z,46.59
2018-07-22T18:48:41.217Z,47.23
2018-07-22T18:51:11.436Z,47.82
2018-07-22T18:53:41.617Z,48.55
2018-07-22T18:56:11.899Z,48.90
2018-07-22T18:58:42.080Z,49.13
2018-07-22T19:01:12.495Z,47.80
2018-07-22T19:03:42.637Z,48.05
2018-07-22T19:06:12.912Z,47.97
2018-07-22T19:08:43.162Z,48.27
2018-07-22T19:11:13.398Z,47.62
2018-07-22T19:13:44.425Z,48.28
2018-07-22T19:16:14.910Z,48.71
2018-07-22T19:18:45.112Z,48.22
2018-07-22T19:21:15.331Z,48.99
2018-07-22T19:23:45.618Z,48.73
2018-07-22T19:26:16.212Z,48.89
2018-07-22T19:28:46.920Z,48.48
2018-07-22T19:31:17.109Z,48.44
2018-07-22T19:33:47.418Z,47.94
2018-07-22T19:36:17.989Z,47.58
2018-07-22T19:38:48.617Z,47.53
2018-07-22T19:41:18.966Z,46.20
2018-07-22T19:43:49.883Z,47.89
2018-07-22T19:46:20.150Z,48.49
2018-07-22T19:48:50.928Z,48.07
2018-07-22T19:51:21.216Z,47.38
2018-07-22T19:53:51.626Z,47.06
2018-07-22T19:56:21.846Z,47.42
2018-07-22T19:58:52.071Z,47.59
2018-07-22T20:01:22.196Z,47.40
2018-07-22T20:03:52.507Z,47.62
2018-07-22T20:06:23.482Z,47.94
2018-07-22T20:08:53.590Z,48.12
2018-07-22T20:11:24.516Z,47.80
2018-07-22T20:13:54.726Z,48.86
2018-07-22T20:16:24.992Z,48.80
2018-07-22T20:18:55.194Z,49.60
2018-07-22T20:21:25.863Z,49.83
2018-07-22T20:23:56.136Z,49.37
2018-07-22T20:26:26.220Z,49.60
2018-07-22T20:28:56.541Z,49.74
2018-07-22T20:31:26.704Z,49.07
2018-07-22T20:33:56.936Z,49.33
2018-07-22T20:36:27.242Z,49.96
2018-07-22T20:38:57.473Z,48.88
2018-07-22T20:41:28.921Z,49.77
2018-07-22T20:43:59.056Z,49.91
2018-07-22T20:46:29.174Z,49.87
2018-07-22T20:48:59.308Z,50.11
2018-07-22T20:51:29.437Z,50.63
2018-07-22T20:53:59.540Z,50.04
2018-07-22T20:56:29.736Z,50.78
2018-07-22T20:58:59.948Z,50.85
2018-07-22T21:01:30.078Z,50.96
2018-07-22T21:04:00.200Z,49.99
2018-07-22T21:06:30.334Z,50.36
2018-07-22T21:09:00.489Z,50.13
2018-07-22T21:11:50.491Z,50.97
2018-07-22T21:14:20.626Z,51.23
2018-07-22T21:16:50.806Z,51.10
2018-07-22T21:19:21.520Z,51.61
2018-07-22T21:21:51.716Z,50.77
2018-07-22T21:24:21.826Z,50.78
2018-07-22T21:26:52.075Z,51.80
2018-07-22T21:29:22.219Z,51.80
2018-07-22T21:31:52.333Z,52.67
2018-07-22T21:34:22.499Z,53.19
2018-07-22T21:36:52.714Z,54.27
2018-07-22T21:39:23.123Z,53.94
2018-07-22T21:41:53.313Z,54.49
2018-07-22T21:44:23.489Z,54.87
2018-07-22T21:46:53.768Z,54.93
2018-07-22T21:49:23.989Z,55.90
2018-07-22T21:51:54.061Z,56.16
2018-07-22T21:54:24.214Z,57.10
2018-07-22T21:56:55.116Z,57.36
2018-07-22T21:59:25.487Z,58.20
2018-07-22T22:01:55.805Z,58.88
2018-07-22T22:04:25.997Z,58.85
2018-07-22T22:06:56.227Z,59.47
2018-07-22T22:09:26.721Z,59.48
2018-07-22T22:11:56.819Z,60.11
2018-07-22T22:14:27.872Z,59.20
2018-07-22T22:16:58.054Z,59.08
2018-07-22T22:19:28.476Z,57.73
2018-07-22T22:21:58.879Z,58.58
2018-07-22T22:24:29.160Z,59.16
2018-07-22T22:26:59.346Z,59.07
2018-07-22T22:29:29.606Z,58.27
2018-07-22T22:31:59.834Z,59.18
2018-07-22T22:34:29.949Z,59.33
2018-07-22T22:37:00.067Z,59.85
2018-07-22T22:39:30.419Z,60.71
2018-07-22T22:42:00.623Z,61.47
2018-07-22T22:44:30.903Z,62.88
2018-07-22T22:47:01.111Z,63.71
2018-07-22T22:49:31.330Z,65.08
2018-07-22T22:52:01.569Z,65.37
2018-07-22T22:54:31.755Z,66.30
2018-07-22T22:57:01.843Z,66.27
2018-07-22T22:59:32.412Z,66.09
2018-07-22T23:02:02.758Z,66.36
2018-07-22T23:04:32.886Z,66.13
2018-07-22T23:07:03.088Z,67.48
2018-07-22T23:09:33.355Z,68.52
2018-07-22T23:12:03.575Z,68.94
2018-07-22T23:14:33.757Z,69.46
2018-07-22T23:17:03.870Z,69.47
2018-07-22T23:19:34.005Z,69.41
2018-07-22T23:22:04.379Z,69.95
2018-07-22T23:24:34.584Z,69.44
2018-07-22T23:27:04.712Z,69.29
2018-07-22T23:29:34.862Z,69.54
2018-07-22T23:32:05.447Z,68.97
2018-07-22T23:34:35.752Z,69.23
2018-07-22T23:37:05.926Z,69.35
2018-07-22T23:39:36.134Z,68.96
2018-07-22T23:42:06.452Z,69.08
2018-07-22T23:44:36.667Z,69.92
2018-07-22T23:47:06.880Z,70.54
2018-07-22T23:49:37.088Z,70.40
2018-07-22T23:52:07.722Z,70.73
2018-07-22T23:54:37.957Z,71.15
2018-07-22T23:57:08.149Z,71.36
2018-07-22T23:59:38.515Z,72.38
